sensor_id;sensor_type;location;lat;lon;timestamp;P1;durP1;ratioP1;P2;durP2;ratioP2
35366;SDS011;21465;52.278;20.962;2023-08-06T00:00:08;22.58;;;13.82;;
35366;SDS011;21465;52.278;20.962;2023-08-06T00:02:54;17.48;;;12.57;;
35366;SDS011;21465;52.278;20.962;2023-08-06T00:05:20;23.70;;;15.93;;
35366;SDS011;21465;52.278;20.962;2023-08-06T00:07:49;22.15;;;13.40;;
35366;SDS011;21465;52.278;20.962;2023-08-06T00:10:16;33.75;;;15.50;;
35366;SDS011;21465;52.278;20.962;2023-08-06T00:12:43;16.95;;;12.35;;
35366;SDS011;21465;52.278;20.962;2023-08-06T00:15:10;29.02;;;15.18;;
35366;SDS011;21465;52.278;20.962;2023-08-06T00:17:36;27.17;;;14.98;;
35366;SDS011;21465;52.278;20.962;2023-08-06T00:20:03;44.45;;;19.75;;
35366;SDS011;21465;52.278;20.962;2023-08-06T00:22:35;21.60;;;13.02;;
35366;SDS011;21465;52.278;20.962;2023-08-06T00:27:27;20.30;;;13.02;;
35366;SDS011;21465;52.278;20.962;2023-08-06T00:29:53;17.27;;;13.30;;
35366;SDS011;21465;52.278;20.962;2023-08-06T00:32:19;28.00;;;15.10;;
35366;SDS011;21465;52.278;20.962;2023-08-06T00:34:45;19.42;;;13.20;;
35366;SDS011;21465;52.278;20.962;2023-08-06T00:37:10;13.68;;;11.85;;
35366;SDS011;21465;52.278;20.962;2023-08-06T00:39:36;23.95;;;15.52;;
35366;SDS011;21465;52.278;20.962;2023-08-06T00:42:02;12.38;;;10.77;;
35366;SDS011;21465;52.278;20.962;2023-08-06T00:44:28;15.30;;;12.32;;
35366;SDS011;21465;52.278;20.962;2023-08-06T00:46:54;12.68;;;11.48;;
35366;SDS011;21465;52.278;20.962;2023-08-06T00:49:21;14.07;;;12.63;;
35366;SDS011;21465;52.278;20.962;2023-08-06T00:51:46;13.40;;;12.02;;
35366;SDS011;21465;52.278;20.962;2023-08-06T00:54:12;12.88;;;11.68;;
35366;SDS011;21465;52.278;20.962;2023-08-06T00:56:38;15.45;;;12.57;;
35366;SDS011;21465;52.278;20.962;2023-08-06T00:59:04;10.73;;;9.82;;
35366;SDS011;21465;52.278;20.962;2023-08-06T01:01:31;14.30;;;12.27;;
35366;SDS011;21465;52.278;20.962;2023-08-06T01:03:57;11.05;;;10.05;;
35366;SDS011;21465;52.278;20.962;2023-08-06T01:06:35;10.88;;;9.93;;
35366;SDS011;21465;52.278;20.962;2023-08-06T01:09:13;15.38;;;11.63;;
35366;SDS011;21465;52.278;20.962;2023-08-06T01:17:40;13.07;;;11.15;;
35366;SDS011;21465;52.278;20.962;2023-08-06T01:20:07;12.32;;;11.23;;
35366;SDS011;21465;52.278;20.962;2023-08-06T01:22:32;13.10;;;11.82;;
35366;SDS011;21465;52.278;20.962;2023-08-06T01:24:58;12.30;;;11.10;;
35366;SDS011;21465;52.278;20.962;2023-08-06T01:27:27;12.70;;;11.43;;
35366;SDS011;21465;52.278;20.962;2023-08-06T01:29:57;16.17;;;13.70;;
35366;SDS011;21465;52.278;20.962;2023-08-06T01:32:28;11.75;;;10.73;;
35366;SDS011;21465;52.278;20.962;2023-08-06T01:34:55;14.25;;;12.85;;
35366;SDS011;21465;52.278;20.962;2023-08-06T01:37:21;14.88;;;13.25;;
35366;SDS011;21465;52.278;20.962;2023-08-06T01:39:48;14.02;;;12.43;;
35366;SDS011;21465;52.278;20.962;2023-08-06T01:42:13;13.30;;;12.10;;
35366;SDS011;21465;52.278;20.962;2023-08-06T01:44:39;14.88;;;13.50;;
35366;SDS011;21465;52.278;20.962;2023-08-06T01:47:06;12.55;;;11.45;;
35366;SDS011;21465;52.278;20.962;2023-08-06T01:49:32;14.25;;;11.90;;
35366;SDS011;21465;52.278;20.962;2023-08-06T01:51:57;12.98;;;11.68;;
35366;SDS011;21465;52.278;20.962;2023-08-06T01:54:26;11.85;;;10.77;;
35366;SDS011;21465;52.278;20.962;2023-08-06T01:56:53;12.65;;;11.48;;
35366;SDS011;21465;52.278;20.962;2023-08-06T01:59:18;12.23;;;11.20;;
35366;SDS011;21465;52.278;20.962;2023-08-06T02:01:44;14.23;;;12.70;;
35366;SDS011;21465;52.278;20.962;2023-08-06T02:04:10;12.95;;;11.63;;
35366;SDS011;21465;52.278;20.962;2023-08-06T02:06:36;12.43;;;11.32;;
35366;SDS011;21465;52.278;20.962;2023-08-06T02:09:02;11.95;;;10.95;;
35366;SDS011;21465;52.278;20.962;2023-08-06T02:11:27;12.23;;;11.15;;
35366;SDS011;21465;52.278;20.962;2023-08-06T02:13:53;10.88;;;9.77;;
35366;SDS011;21465;52.278;20.962;2023-08-06T02:16:19;11.25;;;10.18;;
35366;SDS011;21465;52.278;20.962;2023-08-06T02:18:45;10.30;;;9.50;;
35366;SDS011;21465;52.278;20.962;2023-08-06T02:21:11;11.23;;;10.18;;
35366;SDS011;21465;52.278;20.962;2023-08-06T02:23:37;16.08;;;9.93;;
35366;SDS011;21465;52.278;20.962;2023-08-06T02:26:03;11.30;;;10.30;;
35366;SDS011;21465;52.278;20.962;2023-08-06T02:28:30;9.88;;;9.02;;
35366;SDS011;21465;52.278;20.962;2023-08-06T02:30:56;11.20;;;10.23;;
35366;SDS011;21465;52.278;20.962;2023-08-06T02:33:22;10.80;;;9.88;;
35366;SDS011;21465;52.278;20.962;2023-08-06T02:35:49;10.55;;;9.65;;
35366;SDS011;21465;52.278;20.962;2023-08-06T02:38:15;10.70;;;9.73;;
35366;SDS011;21465;52.278;20.962;2023-08-06T02:40:47;11.07;;;10.00;;
35366;SDS011;21465;52.278;20.962;2023-08-06T02:43:13;10.32;;;9.43;;
35366;SDS011;21465;52.278;20.962;2023-08-06T02:45:39;10.70;;;9.70;;
35366;SDS011;21465;52.278;20.962;2023-08-06T02:48:08;9.38;;;8.55;;
35366;SDS011;21465;52.278;20.962;2023-08-06T02:50:37;12.57;;;10.13;;
35366;SDS011;21465;52.278;20.962;2023-08-06T02:53:08;9.13;;;8.32;;
35366;SDS011;21465;52.278;20.962;2023-08-06T02:55:34;10.40;;;9.50;;
35366;SDS011;21465;52.278;20.962;2023-08-06T02:58:01;10.07;;;9.18;;
35366;SDS011;21465;52.278;20.962;2023-08-06T03:00:27;9.88;;;9.00;;
35366;SDS011;21465;52.278;20.962;2023-08-06T03:02:53;9.63;;;8.82;;
35366;SDS011;21465;52.278;20.962;2023-08-06T03:05:20;9.98;;;9.07;;
35366;SDS011;21465;52.278;20.962;2023-08-06T03:07:46;10.43;;;9.52;;
35366;SDS011;21465;52.278;20.962;2023-08-06T03:10:12;8.80;;;8.10;;
35366;SDS011;21465;52.278;20.962;2023-08-06T03:12:39;10.35;;;9.45;;
35366;SDS011;21465;52.278;20.962;2023-08-06T03:15:04;10.63;;;9.73;;
35366;SDS011;21465;52.278;20.962;2023-08-06T03:17:31;10.15;;;9.27;;
35366;SDS011;21465;52.278;20.962;2023-08-06T03:19:58;11.48;;;10.48;;
35366;SDS011;21465;52.278;20.962;2023-08-06T03:22:24;10.90;;;9.90;;
35366;SDS011;21465;52.278;20.962;2023-08-06T03:24:52;11.50;;;10.40;;
35366;SDS011;21465;52.278;20.962;2023-08-06T03:27:18;10.90;;;10.00;;
35366;SDS011;21465;52.278;20.962;2023-08-06T03:29:44;10.80;;;9.90;;
35366;SDS011;21465;52.278;20.962;2023-08-06T03:32:09;11.73;;;10.73;;
35366;SDS011;21465;52.278;20.962;2023-08-06T03:34:35;11.20;;;10.20;;
35366;SDS011;21465;52.278;20.962;2023-08-06T03:37:01;11.48;;;10.52;;
35366;SDS011;21465;52.278;20.962;2023-08-06T03:39:26;10.70;;;9.82;;
35366;SDS011;21465;52.278;20.962;2023-08-06T03:41:52;12.13;;;10.88;;
35366;SDS011;21465;52.278;20.962;2023-08-06T03:44:18;12.25;;;11.20;;
35366;SDS011;21465;52.278;20.962;2023-08-06T03:46:44;12.30;;;11.20;;
35366;SDS011;21465;52.278;20.962;2023-08-06T03:49:10;11.88;;;10.93;;
35366;SDS011;21465;52.278;20.962;2023-08-06T03:51:35;13.52;;;12.32;;
35366;SDS011;21465;52.278;20.962;2023-08-06T03:54:01;12.18;;;11.07;;
35366;SDS011;21465;52.278;20.962;2023-08-06T03:56:29;13.43;;;12.23;;
35366;SDS011;21465;52.278;20.962;2023-08-06T03:58:55;12.63;;;11.48;;
35366;SDS011;21465;52.278;20.962;2023-08-06T04:01:21;12.48;;;11.45;;
35366;SDS011;21465;52.278;20.962;2023-08-06T04:03:47;13.48;;;12.35;;
35366;SDS011;21465;52.278;20.962;2023-08-06T04:06:13;14.13;;;13.02;;
35366;SDS011;21465;52.278;20.962;2023-08-06T04:08:38;14.57;;;13.18;;
35366;SDS011;21465;52.278;20.962;2023-08-06T04:11:04;14.35;;;12.95;;
35366;SDS011;21465;52.278;20.962;2023-08-06T04:13:30;13.25;;;12.15;;
35366;SDS011;21465;52.278;20.962;2023-08-06T04:16:01;14.75;;;13.45;;
35366;SDS011;21465;52.278;20.962;2023-08-06T04:18:30;13.80;;;12.60;;
35366;SDS011;21465;52.278;20.962;2023-08-06T04:20:56;14.93;;;13.50;;
35366;SDS011;21465;52.278;20.962;2023-08-06T04:23:23;15.77;;;14.23;;
35366;SDS011;21465;52.278;20.962;2023-08-06T04:25:49;14.25;;;13.05;;
35366;SDS011;21465;52.278;20.962;2023-08-06T04:28:15;15.43;;;14.05;;
35366;SDS011;21465;52.278;20.962;2023-08-06T04:30:41;16.00;;;14.57;;
35366;SDS011;21465;52.278;20.962;2023-08-06T04:33:07;14.63;;;13.43;;
35366;SDS011;21465;52.278;20.962;2023-08-06T04:35:33;15.50;;;14.07;;
35366;SDS011;21465;52.278;20.962;2023-08-06T04:37:58;14.35;;;13.15;;
35366;SDS011;21465;52.278;20.962;2023-08-06T04:40:24;13.93;;;12.73;;
35366;SDS011;21465;52.278;20.962;2023-08-06T04:42:50;13.32;;;12.25;;
35366;SDS011;21465;52.278;20.962;2023-08-06T04:45:16;12.95;;;11.68;;
35366;SDS011;21465;52.278;20.962;2023-08-06T04:47:41;11.88;;;10.95;;
35366;SDS011;21465;52.278;20.962;2023-08-06T04:50:10;13.02;;;11.77;;
35366;SDS011;21465;52.278;20.962;2023-08-06T04:52:36;11.52;;;10.68;;
35366;SDS011;21465;52.278;20.962;2023-08-06T04:55:03;12.10;;;11.10;;
35366;SDS011;21465;52.278;20.962;2023-08-06T04:57:31;11.40;;;10.57;;
35366;SDS011;21465;52.278;20.962;2023-08-06T04:59:57;11.57;;;10.57;;
35366;SDS011;21465;52.278;20.962;2023-08-06T05:02:23;10.90;;;10.00;;
35366;SDS011;21465;52.278;20.962;2023-08-06T05:04:49;10.90;;;10.10;;
35366;SDS011;21465;52.278;20.962;2023-08-06T05:07:15;10.70;;;9.90;;
35366;SDS011;21465;52.278;20.962;2023-08-06T05:09:43;10.77;;;10.02;;
35366;SDS011;21465;52.278;20.962;2023-08-06T05:12:09;9.88;;;9.07;;
35366;SDS011;21465;52.278;20.962;2023-08-06T05:14:35;8.82;;;8.23;;
35366;SDS011;21465;52.278;20.962;2023-08-06T05:17:00;9.40;;;8.70;;
35366;SDS011;21465;52.278;20.962;2023-08-06T05:19:28;8.55;;;7.78;;
35366;SDS011;21465;52.278;20.962;2023-08-06T05:21:54;7.90;;;7.25;;
35366;SDS011;21465;52.278;20.962;2023-08-06T05:24:20;7.85;;;7.25;;
35366;SDS011;21465;52.278;20.962;2023-08-06T05:26:46;6.97;;;6.55;;
35366;SDS011;21465;52.278;20.962;2023-08-06T05:29:13;6.63;;;6.22;;
35366;SDS011;21465;52.278;20.962;2023-08-06T05:31:38;6.47;;;5.97;;
35366;SDS011;21465;52.278;20.962;2023-08-06T05:34:04;6.15;;;5.75;;
35366;SDS011;21465;52.278;20.962;2023-08-06T05:36:30;6.00;;;5.50;;
35366;SDS011;21465;52.278;20.962;2023-08-06T05:38:56;5.60;;;5.22;;
35366;SDS011;21465;52.278;20.962;2023-08-06T05:41:21;5.30;;;4.90;;
35366;SDS011;21465;52.278;20.962;2023-08-06T05:43:47;5.50;;;5.10;;
35366;SDS011;21465;52.278;20.962;2023-08-06T05:46:13;5.55;;;5.10;;
35366;SDS011;21465;52.278;20.962;2023-08-06T05:48:38;4.97;;;4.65;;
35366;SDS011;21465;52.278;20.962;2023-08-06T05:51:04;5.10;;;4.80;;
35366;SDS011;21465;52.278;20.962;2023-08-06T05:53:33;5.20;;;4.90;;
35366;SDS011;21465;52.278;20.962;2023-08-06T05:55:59;4.82;;;4.43;;
35366;SDS011;21465;52.278;20.962;2023-08-06T05:58:25;5.28;;;4.78;;
35366;SDS011;21465;52.278;20.962;2023-08-06T06:00:54;4.80;;;4.40;;
35366;SDS011;21465;52.278;20.962;2023-08-06T06:03:20;4.93;;;4.53;;
35366;SDS011;21465;52.278;20.962;2023-08-06T06:05:45;4.65;;;4.25;;
35366;SDS011;21465;52.278;20.962;2023-08-06T06:08:12;4.53;;;4.22;;
35366;SDS011;21465;52.278;20.962;2023-08-06T06:10:37;4.75;;;4.05;;
35366;SDS011;21465;52.278;20.962;2023-08-06T06:13:03;4.88;;;4.47;;
35366;SDS011;21465;52.278;20.962;2023-08-06T06:15:29;4.43;;;4.03;;
35366;SDS011;21465;52.278;20.962;2023-08-06T06:17:55;4.20;;;3.83;;
35366;SDS011;21465;52.278;20.962;2023-08-06T06:20:21;4.35;;;3.97;;
35366;SDS011;21465;52.278;20.962;2023-08-06T06:22:47;4.38;;;4.07;;
35366;SDS011;21465;52.278;20.962;2023-08-06T06:25:13;4.70;;;4.32;;
35366;SDS011;21465;52.278;20.962;2023-08-06T06:27:39;4.57;;;3.95;;
35366;SDS011;21465;52.278;20.962;2023-08-06T06:30:06;4.43;;;4.07;;
35366;SDS011;21465;52.278;20.962;2023-08-06T06:32:32;3.95;;;3.67;;
35366;SDS011;21465;52.278;20.962;2023-08-06T06:35:01;4.13;;;3.90;;
35366;SDS011;21465;52.278;20.962;2023-08-06T06:37:27;4.43;;;4.03;;
35366;SDS011;21465;52.278;20.962;2023-08-06T06:39:53;4.13;;;3.72;;
35366;SDS011;21465;52.278;20.962;2023-08-06T06:42:19;3.67;;;3.38;;
35366;SDS011;21465;52.278;20.962;2023-08-06T06:44:45;3.97;;;3.65;;
35366;SDS011;21465;52.278;20.962;2023-08-06T06:47:11;3.45;;;3.17;;
35366;SDS011;21465;52.278;20.962;2023-08-06T06:49:36;3.53;;;3.15;;
35366;SDS011;21465;52.278;20.962;2023-08-06T06:52:02;3.83;;;3.53;;
35366;SDS011;21465;52.278;20.962;2023-08-06T06:54:31;5.35;;;3.70;;
35366;SDS011;21465;52.278;20.962;2023-08-06T06:56:57;4.00;;;3.67;;
35366;SDS011;21465;52.278;20.962;2023-08-06T06:59:22;4.78;;;3.63;;
